FEFT

Berbérati Airport

Berbérati, Central African Republic
METAR FEFT 151000Z 28004KT 9999 OVC021 28/23 Q1014
Observed Flight Rules
Aug-15 @ 10:00 UTC (12 hours ago) Marginal Visual Flight Rules
Wind Visibility Clouds
280° at 4 knots 10,000+ meters
  • Overcast at 2,100' AGL
Temperatures Readings
Current 28°C / 82°F
Dewpoint 23°C / 73°F
Humidity 74%
Altimeter 29.94" Hg
Pressure 1014 hPa
Elevation 583
METAR FEFT 151000Z 28004KT 9999 OVC021 28/23 Q1014
Observed Flight Rules
Aug-15 @ 10:00 UTC
(12 hours ago)
MVFR
Wind Visibility
280° at 4 knots 10,000+ meters
Clouds
  • Overcast at 2,100' AGL
Temperature Dewpoint
28°C / 82°F 23°C / 73°F
Humidity Altimeter Pressure
74% 29.94" Hg 1014 hPa